Time;durP1;ratioP1;P1;durP2;ratioP2;P2;SDS_P1;SDS_P2;PMS_P1;PMS_P2;Temp;Humidity;BMP_temperature;BMP_pressure;BME280_temperature;BME280_humidity;BME280_pressure;Samples;Min_cycle;Max_cycle;Signal;HPM_P1;HPM_P2
2023/12/22 00:00:18;;;;;;;26.02;3.85;;;8.80;99.90;;;;;;5026772;28;20370;-74
2023/12/22 00:02:44;;;;;;;24.75;3.47;;;8.80;99.90;;;;;;5023559;28;20037;-75
2023/12/22 00:05:09;;;;;;;27.20;3.95;;;8.80;99.90;;;;;;5022167;28;20021;-74
2023/12/22 00:07:35;;;;;;;29.10;4.18;;;8.90;99.90;;;;;;5027061;28;20807;-74
2023/12/22 00:10:00;;;;;;;32.65;4.70;;;8.90;99.90;;;;;;5017613;28;20555;-74
2023/12/22 00:12:26;;;;;;;24.23;3.63;;;8.90;99.90;;;;;;5023671;28;20757;-75
2023/12/22 00:14:52;;;;;;;30.58;4.00;;;8.90;99.90;;;;;;5010206;28;20105;-74
2023/12/22 00:17:17;;;;;;;22.65;4.05;;;8.90;99.90;;;;;;5023605;28;20041;-74
2023/12/22 00:19:43;;;;;;;24.35;3.65;;;8.90;99.90;;;;;;5022872;27;20073;-74
2023/12/22 00:22:08;;;;;;;25.33;3.80;;;8.90;99.90;;;;;;5018293;28;20398;-74
2023/12/22 00:24:34;;;;;;;28.48;4.50;;;8.90;99.90;;;;;;5017197;28;20057;-74
2023/12/22 00:27:00;;;;;;;23.52;3.70;;;8.90;99.90;;;;;;5018396;28;20026;-75
2023/12/22 00:29:28;;;;;;;25.98;3.70;;;8.90;99.90;;;;;;5025756;28;20501;-74
2023/12/22 00:31:53;;;;;;;24.08;4.05;;;8.90;99.90;;;;;;5027117;28;20104;-75
2023/12/22 00:34:21;;;;;;;23.58;3.40;;;9.00;99.90;;;;;;5027021;28;20538;-75
2023/12/22 00:36:47;;;;;;;29.10;3.70;;;9.00;99.90;;;;;;5026934;28;20477;-74
2023/12/22 00:39:12;;;;;;;25.65;3.17;;;9.10;99.90;;;;;;5027349;28;20028;-74
2023/12/22 00:41:38;;;;;;;19.95;3.88;;;9.10;99.90;;;;;;5026710;28;20493;-75
2023/12/22 00:44:03;;;;;;;20.15;2.95;;;9.10;99.90;;;;;;5027427;28;20022;-75
2023/12/22 00:46:29;;;;;;;19.60;2.92;;;9.10;99.90;;;;;;5025706;28;20052;-75
2023/12/22 00:48:54;;;;;;;20.40;2.97;;;9.00;99.90;;;;;;5027003;28;20029;-75
2023/12/22 00:51:20;;;;;;;17.83;3.20;;;9.00;99.90;;;;;;5023103;28;20021;-75
2023/12/22 00:53:46;;;;;;;23.00;3.33;;;9.00;99.90;;;;;;5026716;28;20021;-75
2023/12/22 00:56:13;;;;;;;24.52;4.10;;;9.00;99.90;;;;;;5026990;28;20022;-75
2023/12/22 00:58:39;;;;;;;17.92;3.40;;;9.00;99.90;;;;;;5020218;28;20049;-75
2023/12/22 01:01:04;;;;;;;21.95;3.78;;;9.00;99.90;;;;;;5010323;28;20474;-75
2023/12/22 01:03:30;;;;;;;25.45;3.30;;;9.00;99.90;;;;;;5023690;28;20022;-75
2023/12/22 01:05:56;;;;;;;23.98;3.13;;;9.00;99.90;;;;;;5026885;28;20462;-74
2023/12/22 01:08:21;;;;;;;23.80;3.85;;;9.00;99.90;;;;;;5022308;28;20029;-75
2023/12/22 01:10:47;;;;;;;23.73;3.22;;;9.00;99.90;;;;;;5025522;28;20021;-74
2023/12/22 01:13:13;;;;;;;18.60;3.38;;;9.00;99.90;;;;;;5026459;28;20140;-74
2023/12/22 01:15:38;;;;;;;20.83;3.60;;;9.00;99.90;;;;;;5023715;28;20133;-75
2023/12/22 01:18:04;;;;;;;23.23;3.90;;;9.00;99.90;;;;;;5027304;28;20022;-74
2023/12/22 01:20:30;;;;;;;22.42;3.15;;;9.00;99.90;;;;;;5019144;28;20058;-75
2023/12/22 01:22:56;;;;;;;21.80;3.47;;;9.00;99.90;;;;;;5026453;28;20102;-75
2023/12/22 01:25:21;;;;;;;22.38;3.85;;;9.00;99.90;;;;;;5026348;28;20037;-75
2023/12/22 01:27:48;;;;;;;22.27;4.10;;;9.00;99.90;;;;;;5093867;28;20017;-75
2023/12/22 01:30:14;;;;;;;31.65;4.07;;;9.00;99.90;;;;;;5022431;28;20033;-75
2023/12/22 01:32:40;;;;;;;22.58;3.58;;;9.00;99.90;;;;;;5015891;28;20469;-75
2023/12/22 01:35:09;;;;;;;21.63;2.97;;;9.00;99.90;;;;;;5026154;28;20021;-74
2023/12/22 01:37:38;;;;;;;25.58;3.65;;;9.00;99.90;;;;;;5014717;28;20053;-75
2023/12/22 01:40:05;;;;;;;18.17;3.20;;;9.00;99.90;;;;;;5026907;28;20381;-75
2023/12/22 01:42:30;;;;;;;22.00;3.30;;;9.00;99.90;;;;;;5013478;28;20044;-75
2023/12/22 01:44:56;;;;;;;28.65;4.03;;;9.00;99.90;;;;;;5025829;28;20026;-75
2023/12/22 01:47:22;;;;;;;28.67;4.20;;;9.00;99.90;;;;;;5026158;28;20108;-75
2023/12/22 01:49:48;;;;;;;36.53;3.80;;;9.00;99.90;;;;;;5026289;28;20025;-75
2023/12/22 01:52:15;;;;;;;23.08;3.80;;;9.00;99.90;;;;;;5026114;28;20053;-75
2023/12/22 01:54:41;;;;;;;32.35;4.32;;;9.00;99.90;;;;;;5021803;28;20030;-75
2023/12/22 01:57:08;;;;;;;26.95;3.83;;;9.00;99.90;;;;;;5018287;28;20018;-75
2023/12/22 01:59:34;;;;;;;29.55;4.30;;;9.00;99.90;;;;;;5013003;28;20026;-75
2023/12/22 02:02:03;;;;;;;28.10;4.63;;;9.00;99.90;;;;;;5021878;28;20030;-75
2023/12/22 02:04:31;;;;;;;21.48;3.45;;;9.10;99.90;;;;;;5013366;28;20026;-75
2023/12/22 02:07:00;;;;;;;21.15;3.53;;;9.10;99.90;;;;;;5026176;28;20093;-75
2023/12/22 02:09:26;;;;;;;20.95;3.70;;;9.20;99.90;;;;;;5028691;28;20029;-75
2023/12/22 02:11:52;;;;;;;21.90;3.67;;;9.20;99.90;;;;;;5029277;28;20415;-75
2023/12/22 02:14:17;;;;;;;20.90;2.88;;;9.20;99.90;;;;;;5016122;28;20025;-75
2023/12/22 02:16:57;;;;;;;16.90;2.83;;;9.20;99.90;;;;;;5028048;28;20106;-75
2023/12/22 02:19:23;;;;;;;28.13;3.53;;;9.20;99.90;;;;;;5026217;28;20052;-74
2023/12/22 02:22:07;;;;;;;23.58;3.50;;;9.20;99.90;;;;;;5015075;28;20132;-75
2023/12/22 02:24:34;;;;;;;15.47;3.00;;;9.30;99.90;;;;;;5024352;28;20037;-75
2023/12/22 02:27:12;;;;;;;18.13;3.13;;;9.30;99.90;;;;;;5019595;28;20602;-75
2023/12/22 02:29:43;;;;;;;24.60;3.65;;;9.20;99.90;;;;;;5023232;28;20176;-75
2023/12/22 02:32:16;;;;;;;19.58;3.10;;;9.30;99.90;;;;;;5024091;27;20025;-75
2023/12/22 02:34:47;;;;;;;23.20;3.67;;;9.30;99.90;;;;;;5021372;28;20021;-75
2023/12/22 02:37:13;;;;;;;21.25;3.33;;;9.20;99.90;;;;;;5020905;28;20497;-75
2023/12/22 02:39:42;;;;;;;20.77;3.10;;;9.30;99.90;;;;;;5024943;27;20033;-75
2023/12/22 02:42:08;;;;;;;18.13;2.88;;;9.30;99.90;;;;;;5029225;28;20078;-75
2023/12/22 02:44:34;;;;;;;23.30;3.05;;;9.30;99.90;;;;;;5021907;28;20030;-75
2023/12/22 02:46:59;;;;;;;19.70;2.97;;;9.30;99.90;;;;;;5025833;28;20642;-75
2023/12/22 02:49:25;;;;;;;23.77;3.20;;;9.30;99.90;;;;;;5095764;28;20029;-75
2023/12/22 02:51:50;;;;;;;19.00;3.17;;;9.30;99.90;;;;;;5025686;28;20096;-74
2023/12/22 02:54:16;;;;;;;18.70;2.97;;;9.40;99.90;;;;;;5017868;28;20106;-75
2023/12/22 02:56:42;;;;;;;23.48;3.42;;;9.30;99.90;;;;;;5023075;28;20053;-75
2023/12/22 02:59:09;;;;;;;16.52;3.13;;;9.40;99.90;;;;;;5027214;27;20022;-75
2023/12/22 03:01:35;;;;;;;26.00;3.65;;;9.30;99.90;;;;;;5028675;27;20713;-75
2023/12/22 03:04:00;;;;;;;22.50;3.72;;;9.30;99.90;;;;;;5023915;28;20018;-75
2023/12/22 03:06:26;;;;;;;28.60;3.80;;;9.30;99.90;;;;;;5025086;28;20021;-75
2023/12/22 03:08:51;;;;;;;22.63;3.30;;;9.30;99.90;;;;;;5026710;28;20029;-75
2023/12/22 03:11:17;;;;;;;21.33;3.70;;;9.30;99.90;;;;;;5026809;28;20029;-75
2023/12/22 03:13:42;;;;;;;21.15;3.78;;;9.30;99.90;;;;;;5020085;28;20109;-75
2023/12/22 03:16:09;;;;;;;26.77;3.60;;;9.30;99.90;;;;;;5023597;27;20038;-75
2023/12/22 03:18:34;;;;;;;27.75;3.47;;;9.30;99.90;;;;;;5021533;28;20029;-75
2023/12/22 03:21:00;;;;;;;21.88;3.08;;;9.40;99.90;;;;;;5027444;28;20493;-75
2023/12/22 03:23:25;;;;;;;22.55;3.10;;;9.40;99.90;;;;;;5028534;28;20029;-75
2023/12/22 03:25:51;;;;;;;19.42;2.97;;;9.40;99.90;;;;;;5096258;28;20026;-75
2023/12/22 03:28:16;;;;;;;21.73;3.33;;;9.40;99.90;;;;;;5028127;28;20385;-75
2023/12/22 03:30:42;;;;;;;25.80;3.20;;;9.30;99.90;;;;;;5018101;28;20342;-75
2023/12/22 03:33:08;;;;;;;21.52;3.17;;;9.40;99.90;;;;;;5028200;28;20097;-75
2023/12/22 03:35:33;;;;;;;18.90;3.28;;;9.30;99.90;;;;;;5021655;28;20025;-75
2023/12/22 03:37:59;;;;;;;18.05;3.58;;;9.30;99.90;;;;;;5024796;28;20021;-75
2023/12/22 03:40:25;;;;;;;25.08;3.40;;;9.30;99.90;;;;;;5096097;28;20038;-75
2023/12/22 03:42:50;;;;;;;20.23;2.65;;;9.40;99.90;;;;;;5027391;28;20052;-75
2023/12/22 03:45:16;;;;;;;19.90;3.40;;;9.40;99.90;;;;;;5028243;28;20053;-75
2023/12/22 03:47:41;;;;;;;24.80;3.15;;;9.40;99.90;;;;;;5025460;28;20029;-75
2023/12/22 03:50:08;;;;;;;18.58;2.75;;;9.40;99.90;;;;;;5027491;28;20021;-75
2023/12/22 03:52:34;;;;;;;19.77;2.70;;;9.50;99.90;;;;;;5025746;27;20104;-75
2023/12/22 03:54:59;;;;;;;24.08;3.55;;;9.40;99.90;;;;;;5028430;28;20113;-74
2023/12/22 03:57:25;;;;;;;21.08;3.80;;;9.50;99.90;;;;;;5027467;28;20025;-75
2023/12/22 03:59:50;;;;;;;19.50;2.78;;;9.60;99.90;;;;;;5027059;28;20026;-75
2023/12/22 04:02:16;;;;;;;23.60;3.08;;;9.50;99.90;;;;;;5025948;28;20041;-74
2023/12/22 04:04:42;;;;;;;21.58;3.17;;;9.60;99.90;;;;;;5031179;28;20021;-75
2023/12/22 04:07:07;;;;;;;23.48;2.80;;;9.60;99.90;;;;;;5022884;28;20018;-75
2023/12/22 04:09:33;;;;;;;17.65;2.58;;;9.60;99.90;;;;;;5027178;28;20025;-75
2023/12/22 04:11:59;;;;;;;16.20;2.80;;;9.60;99.90;;;;;;5027357;28;20373;-75
2023/12/22 04:14:25;;;;;;;19.17;3.17;;;9.60;99.90;;;;;;5024223;28;20034;-75
2023/12/22 04:16:52;;;;;;;18.33;2.60;;;9.60;99.90;;;;;;5027939;28;20105;-75
2023/12/22 04:19:18;;;;;;;19.45;3.38;;;9.50;99.90;;;;;;5023639;28;20068;-75
2023/12/22 04:21:43;;;;;;;16.10;2.92;;;9.60;99.90;;;;;;5022374;28;20076;-75
2023/12/22 04:24:10;;;;;;;20.98;2.83;;;9.60;99.90;;;;;;5023579;28;20042;-75
2023/12/22 04:26:36;;;;;;;22.70;3.00;;;9.50;99.90;;;;;;5021177;28;20371;-75
2023/12/22 04:29:01;;;;;;;20.88;3.08;;;9.60;99.90;;;;;;5022713;28;20071;-75
2023/12/22 04:31:27;;;;;;;19.90;3.20;;;9.50;99.90;;;;;;5013726;28;20071;-74
2023/12/22 04:33:53;;;;;;;26.13;3.42;;;9.50;99.90;;;;;;5027013;28;20014;-75
2023/12/22 04:36:18;;;;;;;25.67;3.17;;;9.50;99.90;;;;;;5027121;28;20027;-75
2023/12/22 04:38:44;;;;;;;19.02;3.55;;;9.60;99.90;;;;;;5020007;28;20045;-75
2023/12/22 04:41:10;;;;;;;27.60;3.28;;;9.60;99.90;;;;;;5018611;28;20115;-75
2023/12/22 04:43:35;;;;;;;25.60;3.85;;;9.60;99.90;;;;;;5023684;28;20047;-75
2023/12/22 04:46:01;;;;;;;19.52;3.45;;;9.70;99.90;;;;;;5020736;28;20022;-75
2023/12/22 04:48:26;;;;;;;24.88;3.72;;;9.70;99.90;;;;;;5014869;28;20022;-75
2023/12/22 04:50:52;;;;;;;23.48;3.80;;;9.70;99.90;;;;;;5010230;28;20037;-75
2023/12/22 04:53:18;;;;;;;21.63;3.30;;;9.70;99.90;;;;;;5013996;28;20419;-75
2023/12/22 04:55:43;;;;;;;23.15;3.90;;;9.70;99.90;;;;;;5017002;28;20444;-75
2023/12/22 04:58:09;;;;;;;24.77;3.25;;;9.70;99.90;;;;;;5026963;28;20025;-75
2023/12/22 05:00:34;;;;;;;26.10;3.55;;;9.70;99.90;;;;;;5024121;28;20026;-75
2023/12/22 05:03:00;;;;;;;27.45;4.00;;;9.70;99.90;;;;;;5011449;28;20041;-75
2023/12/22 05:05:25;;;;;;;20.75;3.90;;;9.70;99.90;;;;;;5012753;28;20026;-75
2023/12/22 05:07:51;;;;;;;26.40;3.80;;;9.70;99.90;;;;;;5026792;28;20021;-75
2023/12/22 05:10:17;;;;;;;24.63;3.92;;;9.70;99.90;;;;;;5024872;28;20387;-76
2023/12/22 05:12:43;;;;;;;22.73;3.53;;;9.70;99.90;;;;;;5012841;28;20104;-75
2023/12/22 05:15:09;;;;;;;31.95;4.43;;;9.70;99.90;;;;;;5023598;28;20084;-75
2023/12/22 05:17:34;;;;;;;22.55;3.45;;;9.70;99.90;;;;;;5021934;28;20490;-75
2023/12/22 05:20:00;;;;;;;25.75;3.80;;;9.70;99.90;;;;;;5022439;28;20025;-75
2023/12/22 05:22:26;;;;;;;23.90;3.58;;;9.70;99.90;;;;;;5022376;28;20022;-75
2023/12/22 05:24:51;;;;;;;36.15;4.65;;;9.70;99.90;;;;;;5021911;28;20025;-75
2023/12/22 05:27:18;;;;;;;35.47;5.65;;;9.70;99.90;;;;;;5025953;28;20030;-75
2023/12/22 05:29:43;;;;;;;34.28;6.28;;;9.70;99.90;;;;;;5018762;28;20018;-75
2023/12/22 05:32:09;;;;;;;33.72;5.28;;;9.70;99.90;;;;;;5021482;28;20022;-75
2023/12/22 05:34:34;;;;;;;33.45;5.28;;;9.70;99.90;;;;;;5093284;28;20022;-75
2023/12/22 05:37:00;;;;;;;31.90;5.45;;;9.70;99.90;;;;;;5026654;28;20026;-75
2023/12/22 05:39:25;;;;;;;42.95;6.05;;;9.70;99.90;;;;;;5025269;28;20416;-75
2023/12/22 05:41:51;;;;;;;46.00;6.03;;;9.70;99.90;;;;;;5095375;28;20091;-75
2023/12/22 05:44:16;;;;;;;33.28;5.20;;;9.70;99.90;;;;;;5023374;28;20301;-75
2023/12/22 05:46:42;;;;;;;37.75;5.93;;;9.70;99.90;;;;;;5029917;27;20096;-75
2023/12/22 05:49:08;;;;;;;36.08;6.35;;;9.70;99.90;;;;;;5021122;28;20018;-75
2023/12/22 05:51:39;;;;;;;35.75;5.95;;;9.70;99.90;;;;;;5015577;28;20017;-75
2023/12/22 05:54:08;;;;;;;43.67;5.90;;;9.70;99.90;;;;;;5029819;28;20025;-75
2023/12/22 05:56:34;;;;;;;36.90;6.78;;;9.70;99.90;;;;;;5016527;28;20025;-75
2023/12/22 05:59:00;;;;;;;44.58;6.45;;;9.70;99.90;;;;;;5029461;28;20269;-75
2023/12/22 06:01:25;;;;;;;41.80;6.10;;;9.70;99.90;;;;;;5021675;28;20061;-75
2023/12/22 06:03:51;;;;;;;46.08;7.18;;;9.70;99.90;;;;;;5029187;28;20381;-75
2023/12/22 06:06:18;;;;;;;39.38;6.22;;;9.70;99.90;;;;;;5029977;28;20032;-75
2023/12/22 06:08:44;;;;;;;47.53;7.05;;;9.70;99.90;;;;;;5028771;28;20427;-75
2023/12/22 06:11:09;;;;;;;50.15;7.57;;;9.80;99.90;;;;;;5029761;27;20021;-75
2023/12/22 06:13:35;;;;;;;46.83;6.93;;;9.80;99.90;;;;;;5028593;28;20064;-75
2023/12/22 06:16:01;;;;;;;51.30;7.10;;;9.80;99.90;;;;;;5106752;28;20211;-75
2023/12/22 06:18:27;;;;;;;44.25;6.82;;;9.80;99.90;;;;;;5105336;28;20031;-75
2023/12/22 06:20:52;;;;;;;47.53;7.43;;;9.80;99.90;;;;;;5112284;28;20076;-75
2023/12/22 06:23:18;;;;;;;47.55;7.18;;;9.90;99.90;;;;;;5106078;28;20472;-75
2023/12/22 06:25:46;;;;;;;44.58;7.15;;;9.80;99.90;;;;;;5107677;28;20521;-76
2023/12/22 06:28:12;;;;;;;43.00;6.38;;;9.90;99.90;;;;;;5107286;27;20503;-75
2023/12/22 06:30:37;;;;;;;49.22;6.95;;;9.90;99.90;;;;;;5108533;28;20081;-75
2023/12/22 06:33:03;;;;;;;39.45;6.72;;;9.80;99.90;;;;;;5111930;28;20019;-75
2023/12/22 06:35:31;;;;;;;48.28;7.38;;;9.80;99.90;;;;;;5107780;28;20099;-75
2023/12/22 06:38:01;;;;;;;43.25;6.03;;;9.80;99.90;;;;;;5110573;28;20107;-75
2023/12/22 06:40:26;;;;;;;43.65;6.93;;;9.90;99.90;;;;;;5112424;28;20089;-75
2023/12/22 06:42:52;;;;;;;34.47;6.18;;;9.90;99.90;;;;;;5109836;28;20043;-75
2023/12/22 06:45:17;;;;;;;49.42;7.55;;;9.90;99.90;;;;;;5106293;28;20027;-75
2023/12/22 06:47:43;;;;;;;44.15;5.88;;;9.90;99.90;;;;;;5106789;28;20035;-75
2023/12/22 06:50:09;;;;;;;42.15;7.07;;;9.90;99.90;;;;;;5109570;28;20421;-75
2023/12/22 06:52:34;;;;;;;46.83;5.72;;;9.90;99.90;;;;;;5105658;28;20095;-75
2023/12/22 06:55:00;;;;;;;39.03;6.20;;;9.90;99.90;;;;;;5112160;28;20468;-75
2023/12/22 06:57:25;;;;;;;39.30;5.85;;;9.90;99.90;;;;;;5112237;28;20019;-76
2023/12/22 06:59:51;;;;;;;37.60;5.78;;;9.90;99.90;;;;;;5112012;28;20118;-76
2023/12/22 07:02:16;;;;;;;36.40;5.88;;;9.90;99.90;;;;;;5111779;28;20049;-75
2023/12/22 07:04:42;;;;;;;33.72;5.75;;;9.90;99.90;;;;;;5099695;28;20035;-75
2023/12/22 07:07:08;;;;;;;45.40;6.35;;;9.90;99.90;;;;;;5104390;28;20007;-76
2023/12/22 07:09:34;;;;;;;40.28;6.07;;;9.90;99.90;;;;;;5112470;28;20156;-75
2023/12/22 07:11:59;;;;;;;40.80;6.30;;;9.90;99.90;;;;;;5110493;28;20030;-75
2023/12/22 07:14:25;;;;;;;47.78;6.13;;;9.90;99.90;;;;;;5096280;28;20031;-75
2023/12/22 07:16:51;;;;;;;34.88;5.95;;;9.90;99.90;;;;;;5024304;28;20047;-76
2023/12/22 07:19:16;;;;;;;32.38;4.97;;;9.90;99.90;;;;;;5028188;28;20543;-75
2023/12/22 07:21:42;;;;;;;35.05;5.63;;;9.90;99.90;;;;;;5018824;28;20022;-75
2023/12/22 07:24:08;;;;;;;41.80;5.95;;;9.90;99.90;;;;;;5028501;28;20025;-75
2023/12/22 07:26:34;;;;;;;34.72;5.45;;;9.90;99.90;;;;;;5088116;28;20033;-75
2023/12/22 07:28:59;;;;;;;32.38;5.38;;;9.90;99.90;;;;;;5024528;28;20101;-75
2023/12/22 07:31:25;;;;;;;37.85;5.40;;;9.90;99.90;;;;;;5028169;28;20033;-76
2023/12/22 07:33:52;;;;;;;37.22;5.65;;;9.90;99.90;;;;;;5026998;28;20102;-75
2023/12/22 07:36:24;;;;;;;37.47;5.55;;;9.80;99.90;;;;;;5027596;28;20053;-75
2023/12/22 07:38:49;;;;;;;36.70;6.03;;;9.80;99.90;;;;;;5027621;28;20026;-75
2023/12/22 07:41:15;;;;;;;32.70;4.93;;;9.80;99.90;;;;;;5018865;28;20038;-75
2023/12/22 07:43:41;;;;;;;35.80;5.28;;;9.80;99.90;;;;;;5021780;28;20033;-75
2023/12/22 07:46:09;;;;;;;39.25;5.47;;;9.80;99.90;;;;;;5023077;28;20014;-75
2023/12/22 07:48:34;;;;;;;36.53;4.78;;;9.80;99.90;;;;;;5024130;28;20021;-75
2023/12/22 07:51:00;;;;;;;35.78;4.47;;;9.80;99.90;;;;;;5088973;28;20029;-75
2023/12/22 07:53:25;;;;;;;29.67;4.35;;;9.80;99.90;;;;;;5026910;28;20022;-76
2023/12/22 07:55:51;;;;;;;25.48;4.35;;;9.80;99.90;;;;;;5016978;28;20065;-75
2023/12/22 07:58:17;;;;;;;29.90;3.97;;;9.80;99.90;;;;;;5013462;28;20390;-75
2023/12/22 08:00:43;;;;;;;31.90;4.50;;;9.80;99.90;;;;;;5010279;28;20431;-76
2023/12/22 08:03:09;;;;;;;29.55;4.28;;;9.80;99.90;;;;;;5012171;28;20022;-75
2023/12/22 08:05:35;;;;;;;27.17;4.20;;;9.80;99.90;;;;;;5011556;28;20492;-75
2023/12/22 08:08:00;;;;;;;24.52;4.32;;;9.80;99.90;;;;;;5012325;28;20014;-75
2023/12/22 08:10:27;;;;;;;26.58;4.10;;;9.80;99.90;;;;;;5014452;28;20597;-75
2023/12/22 08:12:53;;;;;;;30.77;4.57;;;9.90;99.90;;;;;;5084415;28;20013;-75
2023/12/22 08:15:18;;;;;;;24.08;3.80;;;9.90;99.90;;;;;;5016248;28;20045;-75
2023/12/22 08:17:51;;;;;;;31.67;4.03;;;9.90;99.90;;;;;;5020544;28;20500;-75
2023/12/22 08:20:20;;;;;;;20.20;3.72;;;9.90;99.90;;;;;;5023973;28;20033;-75
2023/12/22 08:22:47;;;;;;;26.52;3.47;;;9.90;99.90;;;;;;5017270;28;20025;-75
2023/12/22 08:25:13;;;;;;;16.23;3.13;;;9.90;99.90;;;;;;5017042;28;20022;-75
2023/12/22 08:27:39;;;;;;;20.58;2.97;;;10.00;99.90;;;;;;5041126;28;20025;-75
2023/12/22 08:30:05;;;;;;;21.05;3.60;;;10.00;99.90;;;;;;5030244;28;20045;-75
2023/12/22 08:32:30;;;;;;;21.52;3.58;;;10.00;99.90;;;;;;5025722;28;20040;-74
2023/12/22 08:34:56;;;;;;;24.85;2.95;;;10.00;99.90;;;;;;5020427;28;20029;-74
2023/12/22 08:37:22;;;;;;;16.67;2.47;;;10.00;99.90;;;;;;5026795;28;20412;-74
2023/12/22 08:39:47;;;;;;;21.80;2.80;;;10.00;99.90;;;;;;5019175;28;20058;-75
2023/12/22 08:42:13;;;;;;;21.63;3.30;;;10.00;99.90;;;;;;5023324;28;20030;-75
2023/12/22 08:44:38;;;;;;;21.88;3.05;;;10.00;99.90;;;;;;5013665;28;20455;-74
2023/12/22 08:47:04;;;;;;;24.70;2.88;;;10.00;99.90;;;;;;5020134;28;20420;-75
2023/12/22 08:49:29;;;;;;;19.83;2.75;;;10.00;99.90;;;;;;5022868;28;20053;-75
2023/12/22 08:51:56;;;;;;;17.50;2.58;;;10.00;99.90;;;;;;5023056;28;20018;-74
2023/12/22 08:54:21;;;;;;;14.57;2.55;;;10.00;99.90;;;;;;5009907;28;20375;-74
2023/12/22 08:56:47;;;;;;;20.45;3.05;;;10.10;99.90;;;;;;5013241;28;20580;-75
2023/12/22 08:59:12;;;;;;;20.15;2.58;;;10.10;99.90;;;;;;5025939;28;20056;-74
2023/12/22 09:01:40;;;;;;;18.17;2.92;;;10.20;99.90;;;;;;5025208;28;20440;-76
2023/12/22 09:04:06;;;;;;;17.58;2.50;;;10.20;99.90;;;;;;5075340;28;20041;-75
2023/12/22 09:06:32;;;;;;;16.65;2.72;;;10.20;99.90;;;;;;5019368;28;20026;-74
2023/12/22 09:08:57;;;;;;;17.10;2.78;;;10.20;99.90;;;;;;5019234;28;20026;-74
2023/12/22 09:11:23;;;;;;;21.23;3.50;;;10.20;99.90;;;;;;5095674;28;20048;-74
2023/12/22 09:13:49;;;;;;;12.68;2.40;;;10.30;99.90;;;;;;5101713;28;20362;-74
2023/12/22 09:16:21;;;;;;;13.35;2.20;;;10.30;99.90;;;;;;5023341;27;20045;-74
2023/12/22 09:18:46;;;;;;;16.90;2.85;;;10.30;99.90;;;;;;5032904;27;20098;-74
2023/12/22 09:21:12;;;;;;;11.88;2.22;;;10.30;99.90;;;;;;5028859;28;20427;-74
2023/12/22 09:23:38;;;;;;;11.18;1.90;;;10.40;99.90;;;;;;5018278;28;20079;-74
2023/12/22 09:26:04;;;;;;;13.82;2.35;;;10.40;99.90;;;;;;5032618;27;20018;-74
2023/12/22 09:28:30;;;;;;;16.38;2.45;;;10.40;99.90;;;;;;5098857;28;20064;-74
2023/12/22 09:30:56;;;;;;;17.95;2.42;;;10.40;99.90;;;;;;5032881;27;20057;-74
2023/12/22 09:33:22;;;;;;;10.15;2.35;;;10.50;99.90;;;;;;5026387;27;20495;-75
2023/12/22 09:35:48;;;;;;;14.45;2.40;;;10.50;99.90;;;;;;5024848;27;20026;-75
2023/12/22 09:38:14;;;;;;;21.30;3.15;;;10.50;99.90;;;;;;5027994;28;20086;-75
2023/12/22 09:40:40;;;;;;;14.50;2.55;;;10.50;99.90;;;;;;5023343;28;20032;-74
2023/12/22 09:43:08;;;;;;;19.50;2.88;;;10.50;99.90;;;;;;5032430;27;20361;-74
2023/12/22 09:45:34;;;;;;;10.70;2.70;;;10.50;99.90;;;;;;5032113;27;20021;-76
2023/12/22 09:48:01;;;;;;;14.18;3.00;;;10.60;99.90;;;;;;5096992;28;20018;-75
2023/12/22 09:50:28;;;;;;;13.75;2.50;;;10.60;99.90;;;;;;5021878;27;20029;-74
2023/12/22 09:52:54;;;;;;;16.42;3.00;;;10.60;99.90;;;;;;5026729;27;20024;-75
2023/12/22 09:55:22;;;;;;;15.00;2.45;;;10.60;99.90;;;;;;5093473;28;20040;-74
2023/12/22 09:57:52;;;;;;;12.90;3.08;;;10.60;99.90;;;;;;5031321;28;20096;-75
2023/12/22 10:00:18;;;;;;;12.02;2.20;;;10.60;99.90;;;;;;5032679;28;20067;-75
2023/12/22 10:02:47;;;;;;;11.65;2.10;;;10.60;99.90;;;;;;5026295;27;20041;-74
2023/12/22 10:05:13;;;;;;;11.20;1.90;;;10.70;99.90;;;;;;5022390;27;20033;-74
2023/12/22 10:07:41;;;;;;;15.77;2.53;;;10.70;99.90;;;;;;5084902;28;20485;-75
2023/12/22 10:10:08;;;;;;;14.70;2.20;;;10.80;99.90;;;;;;5033009;27;20057;-75
2023/12/22 10:12:34;;;;;;;12.88;2.30;;;10.80;99.90;;;;;;5031966;28;20417;-75
2023/12/22 10:15:01;;;;;;;12.38;2.30;;;10.80;99.90;;;;;;5033080;28;20119;-75
2023/12/22 10:17:27;;;;;;;12.82;2.47;;;10.80;99.90;;;;;;5031617;27;20581;-75
2023/12/22 10:19:52;;;;;;;14.32;2.50;;;10.80;99.90;;;;;;5025125;27;20083;-75
2023/12/22 10:22:18;;;;;;;15.95;2.10;;;10.80;99.90;;;;;;5028286;28;20029;-75
2023/12/22 10:24:47;;;;;;;14.50;2.58;;;10.80;99.90;;;;;;5027512;27;20022;-74
2023/12/22 10:27:16;;;;;;;16.73;2.95;;;10.90;99.90;;;;;;5027719;28;20053;-75
2023/12/22 10:29:42;;;;;;;14.80;2.40;;;10.90;99.90;;;;;;5022849;28;20457;-74
2023/12/22 10:32:08;;;;;;;17.50;2.80;;;10.90;99.90;;;;;;5030602;28;20082;-75
2023/12/22 10:34:34;;;;;;;15.98;2.50;;;10.90;99.90;;;;;;5055385;27;20013;-75
2023/12/22 10:37:01;;;;;;;18.40;2.53;;;10.90;99.90;;;;;;5020373;28;20025;-75
2023/12/22 10:39:30;;;;;;;12.68;2.22;;;10.90;99.90;;;;;;5081455;28;20079;-75
2023/12/22 10:41:59;;;;;;;14.40;2.35;;;11.00;99.90;;;;;;5026473;28;20067;-74
2023/12/22 10:44:26;;;;;;;13.80;2.20;;;10.90;99.90;;;;;;5015056;28;20041;-74
2023/12/22 10:46:54;;;;;;;13.10;2.05;;;11.00;99.90;;;;;;5096455;28;20017;-74
2023/12/22 10:49:20;;;;;;;16.60;2.67;;;11.00;99.90;;;;;;5030543;28;20057;-74
2023/12/22 10:51:45;;;;;;;13.48;2.13;;;11.00;99.90;;;;;;5029491;28;20060;-74
2023/12/22 10:54:11;;;;;;;11.10;2.20;;;11.00;99.90;;;;;;5030341;28;20462;-74
2023/12/22 10:56:36;;;;;;;12.90;2.20;;;11.00;99.90;;;;;;5019527;28;20049;-74
2023/12/22 10:59:04;;;;;;;14.00;2.42;;;11.00;99.90;;;;;;5028219;28;20021;-74
2023/12/22 11:01:33;;;;;;;22.20;2.80;;;11.00;99.90;;;;;;5063039;28;20030;-74
2023/12/22 11:04:02;;;;;;;18.25;2.47;;;11.00;99.90;;;;;;5078845;28;20033;-74
2023/12/22 11:06:30;;;;;;;13.45;2.10;;;11.00;99.90;;;;;;5092012;28;20121;-75
2023/12/22 11:08:57;;;;;;;19.52;2.83;;;11.00;99.90;;;;;;5035816;28;20488;-73
2023/12/22 11:11:35;;;;;;;21.05;2.90;;;11.00;99.90;;;;;;5027748;28;20059;-73
2023/12/22 11:14:01;;;;;;;15.60;2.33;;;11.10;99.90;;;;;;5080840;27;20095;-73
2023/12/22 11:16:31;;;;;;;17.13;2.65;;;11.10;99.90;;;;;;5024016;28;20134;-73
2023/12/22 11:18:57;;;;;;;21.08;2.88;;;11.10;99.90;;;;;;5013947;28;20037;-73
2023/12/22 11:21:23;;;;;;;20.35;3.00;;;11.10;99.90;;;;;;5030159;28;20090;-74
2023/12/22 11:23:53;;;;;;;13.70;2.40;;;11.10;99.90;;;;;;5017408;28;20078;-73
2023/12/22 11:26:21;;;;;;;16.30;2.65;;;11.10;99.90;;;;;;5029103;28;20045;-73
2023/12/22 11:28:49;;;;;;;17.40;2.70;;;11.10;99.90;;;;;;5030851;28;20065;-73
2023/12/22 11:31:15;;;;;;;19.13;3.38;;;11.10;99.90;;;;;;5028321;28;20029;-73
2023/12/22 11:33:45;;;;;;;13.68;2.75;;;11.10;99.90;;;;;;5030327;28;20032;-73
2023/12/22 11:36:15;;;;;;;15.00;2.38;;;11.10;99.90;;;;;;5026309;28;20116;-74
2023/12/22 11:38:42;;;;;;;14.98;2.80;;;11.10;99.90;;;;;;5028812;28;20037;-74
2023/12/22 11:41:10;;;;;;;18.83;2.60;;;11.10;99.90;;;;;;5025920;28;20017;-73
2023/12/22 11:43:38;;;;;;;16.77;2.80;;;11.10;99.90;;;;;;5027694;28;20022;-74
2023/12/22 11:46:03;;;;;;;15.13;2.42;;;11.10;99.90;;;;;;5015199;28;20482;-73
2023/12/22 11:48:30;;;;;;;13.48;2.28;;;11.10;99.90;;;;;;5027087;28;20054;-74
2023/12/22 11:50:55;;;;;;;17.92;2.60;;;11.10;99.90;;;;;;5022106;28;20402;-73
2023/12/22 11:53:23;;;;;;;18.42;2.20;;;11.10;99.90;;;;;;5029474;28;20032;-74
2023/12/22 11:55:59;;;;;;;11.88;2.15;;;11.10;99.90;;;;;;5026190;28;20669;-74
2023/12/22 11:58:37;;;;;;;12.93;2.85;;;11.20;99.90;;;;;;5027522;28;20009;-73
2023/12/22 12:01:12;;;;;;;16.45;2.50;;;11.10;99.90;;;;;;5020940;28;20504;-73
2023/12/22 12:03:42;;;;;;;13.23;2.38;;;11.10;99.90;;;;;;5018811;28;20045;-73
2023/12/22 12:06:13;;;;;;;14.50;2.40;;;11.20;99.90;;;;;;5036227;28;20453;-74
2023/12/22 12:08:39;;;;;;;15.23;2.95;;;11.20;99.90;;;;;;5032715;28;20390;-73
2023/12/22 12:11:06;;;;;;;14.77;2.65;;;11.20;99.90;;;;;;5045564;28;20055;-74
2023/12/22 12:13:33;;;;;;;13.98;2.72;;;11.20;99.90;;;;;;5021220;28;20053;-74
2023/12/22 12:16:01;;;;;;;14.93;2.35;;;11.20;99.90;;;;;;5019567;28;20056;-74
2023/12/22 12:18:31;;;;;;;15.82;2.67;;;11.20;99.90;;;;;;5019332;28;20425;-74
2023/12/22 12:20:57;;;;;;;15.25;2.63;;;11.20;99.90;;;;;;5025239;28;20066;-74
2023/12/22 12:23:29;;;;;;;11.60;2.25;;;11.20;99.90;;;;;;5024282;27;20389;-74
2023/12/22 12:25:55;;;;;;;16.42;2.15;;;11.20;99.90;;;;;;5022449;28;20021;-73
2023/12/22 12:28:32;;;;;;;17.83;2.63;;;11.20;99.90;;;;;;5022424;28;20427;-75
2023/12/22 12:31:05;;;;;;;22.15;2.75;;;11.20;99.90;;;;;;5013584;28;20038;-74
2023/12/22 12:33:31;;;;;;;21.25;3.08;;;11.30;99.90;;;;;;5021155;28;20032;-73
2023/12/22 12:36:04;;;;;;;23.48;2.90;;;11.20;99.90;;;;;;5022201;28;20021;-73
2023/12/22 12:38:58;;;;;;;17.60;2.65;;;11.20;99.90;;;;;;5094882;28;20127;-74